sensor_id;sensor_type;location;lat;lon;timestamp;pressure;altitude;pressure_sealevel;temperature;humidity
63285;BME280;49409;55.708;37.522;2023-03-16T00:00:36;98964.81;;;9.55;45.83
63285;BME280;49409;55.708;37.522;2023-03-16T00:03:03;98968.78;;;9.54;46.11
63285;BME280;49409;55.708;37.522;2023-03-16T00:05:28;98971.09;;;9.56;45.83
63285;BME280;49409;55.708;37.522;2023-03-16T00:07:54;98964.00;;;9.58;46.09
63285;BME280;49409;55.708;37.522;2023-03-16T00:10:19;98965.69;;;9.52;46.96
63285;BME280;49409;55.708;37.522;2023-03-16T00:12:54;98953.00;;;9.58;46.09
63285;BME280;49409;55.708;37.522;2023-03-16T00:15:20;98955.97;;;9.67;46.22
63285;BME280;49409;55.708;37.522;2023-03-16T00:17:46;98951.31;;;9.64;46.19
63285;BME280;49409;55.708;37.522;2023-03-16T00:20:13;98940.69;;;9.66;46.30
63285;BME280;49409;55.708;37.522;2023-03-16T00:22:38;98939.47;;;9.67;46.28
63285;BME280;49409;55.708;37.522;2023-03-16T00:25:06;98929.34;;;9.64;46.53
63285;BME280;49409;55.708;37.522;2023-03-16T00:27:31;98933.28;;;9.63;46.36
63285;BME280;49409;55.708;37.522;2023-03-16T00:29:57;98929.34;;;9.64;46.98
63285;BME280;49409;55.708;37.522;2023-03-16T00:32:23;98939.13;;;9.65;46.13
63285;BME280;49409;55.708;37.522;2023-03-16T00:34:49;98950.25;;;9.58;47.93
63285;BME280;49409;55.708;37.522;2023-03-16T00:37:16;98960.41;;;9.61;46.94
63285;BME280;49409;55.708;37.522;2023-03-16T00:39:42;98951.69;;;9.66;46.87
63285;BME280;49409;55.708;37.522;2023-03-16T00:42:09;98945.41;;;9.66;47.06
63285;BME280;49409;55.708;37.522;2023-03-16T00:44:37;98948.59;;;9.64;47.24
63285;BME280;49409;55.708;37.522;2023-03-16T00:47:03;98948.94;;;9.66;47.36
63285;BME280;49409;55.708;37.522;2023-03-16T00:49:29;98946.66;;;9.61;47.12
63285;BME280;49409;55.708;37.522;2023-03-16T00:51:59;98950.25;;;9.58;46.85
63285;BME280;49409;55.708;37.522;2023-03-16T00:54:25;98952.66;;;9.56;46.95
63285;BME280;49409;55.708;37.522;2023-03-16T00:56:51;98946.94;;;9.47;48.15
63285;BME280;49409;55.708;37.522;2023-03-16T00:59:16;98943.72;;;9.52;47.00
63285;BME280;49409;55.708;37.522;2023-03-16T01:01:44;98950.75;;;9.53;47.00
63285;BME280;49409;55.708;37.522;2023-03-16T01:04:10;98950.38;;;9.51;47.53
63285;BME280;49409;55.708;37.522;2023-03-16T01:06:36;98950.88;;;9.46;48.15
63285;BME280;49409;55.708;37.522;2023-03-16T01:09:01;98940.63;;;9.50;47.42
63285;BME280;49409;55.708;37.522;2023-03-16T01:11:29;98955.88;;;9.51;47.26
63285;BME280;49409;55.708;37.522;2023-03-16T01:13:58;98949.25;;;9.48;47.70
63285;BME280;49409;55.708;37.522;2023-03-16T01:16:23;98944.66;;;9.42;47.55
63285;BME280;49409;55.708;37.522;2023-03-16T01:18:49;98950.22;;;9.38;47.42
63285;BME280;49409;55.708;37.522;2023-03-16T01:21:16;98961.28;;;9.35;47.88
63285;BME280;49409;55.708;37.522;2023-03-16T01:23:42;98960.13;;;9.32;47.46
63285;BME280;49409;55.708;37.522;2023-03-16T01:26:08;98959.72;;;9.33;47.87
63285;BME280;49409;55.708;37.522;2023-03-16T01:28:33;98960.06;;;9.36;47.70
63285;BME280;49409;55.708;37.522;2023-03-16T01:31:00;98953.09;;;9.31;47.90
63285;BME280;49409;55.708;37.522;2023-03-16T01:33:26;98955.06;;;9.30;48.62
63285;BME280;49409;55.708;37.522;2023-03-16T01:36:14;98953.84;;;9.31;48.50
63285;BME280;49409;55.708;37.522;2023-03-16T01:38:37;98959.72;;;9.33;47.89
63285;BME280;49409;55.708;37.522;2023-03-16T01:41:03;98961.28;;;9.35;47.96
63285;BME280;49409;55.708;37.522;2023-03-16T01:43:29;98958.22;;;9.29;47.99
63285;BME280;49409;55.708;37.522;2023-03-16T01:48:23;98958.28;;;9.25;48.17
63285;BME280;49409;55.708;37.522;2023-03-16T01:50:50;98955.19;;;9.23;48.20
63285;BME280;49409;55.708;37.522;2023-03-16T01:53:19;98955.28;;;9.16;49.46
63285;BME280;49409;55.708;37.522;2023-03-16T01:55:46;98960.78;;;9.16;48.48
63285;BME280;49409;55.708;37.522;2023-03-16T01:58:12;98955.28;;;9.16;48.20
63285;BME280;49409;55.708;37.522;2023-03-16T02:00:38;98959.28;;;9.11;48.75
63285;BME280;49409;55.708;37.522;2023-03-16T02:03:07;98951.41;;;9.13;48.32
63285;BME280;49409;55.708;37.522;2023-03-16T02:05:36;98953.34;;;9.17;48.29
63285;BME280;49409;55.708;37.522;2023-03-16T02:08:03;98947.41;;;9.18;48.47
63285;BME280;49409;55.708;37.522;2023-03-16T02:10:29;98944.66;;;9.18;48.60
63285;BME280;49409;55.708;37.522;2023-03-16T02:12:55;98952.06;;;9.21;48.25
63285;BME280;49409;55.708;37.522;2023-03-16T02:15:22;98964.53;;;9.26;48.51
63285;BME280;49409;55.708;37.522;2023-03-16T02:17:47;98965.19;;;9.33;48.24
63285;BME280;49409;55.708;37.522;2023-03-16T02:20:16;98958.22;;;9.29;48.90
63285;BME280;49409;55.708;37.522;2023-03-16T02:22:48;98953.84;;;9.31;49.01
63285;BME280;49409;55.708;37.522;2023-03-16T02:25:18;98954.94;;;9.38;48.23
63285;BME280;49409;55.708;37.522;2023-03-16T02:30:13;98945.41;;;9.46;48.10
63285;BME280;49409;55.708;37.522;2023-03-16T02:32:39;98954.41;;;9.46;48.12
63285;BME280;49409;55.708;37.522;2023-03-16T02:35:05;98954.03;;;9.44;48.17
63285;BME280;49409;55.708;37.522;2023-03-16T02:37:31;98953.63;;;9.46;48.76
63285;BME280;49409;55.708;37.522;2023-03-16T02:40:00;98961.38;;;9.51;47.88
63285;BME280;49409;55.708;37.522;2023-03-16T02:42:26;98953.91;;;9.51;48.31
63285;BME280;49409;55.708;37.522;2023-03-16T02:44:58;98945.97;;;9.57;47.90
63285;BME280;49409;55.708;37.522;2023-03-16T02:47:29;98936.53;;;9.58;47.80
63285;BME280;49409;55.708;37.522;2023-03-16T02:49:57;98938.06;;;9.59;48.10
63285;BME280;49409;55.708;37.522;2023-03-16T02:52:22;98946.66;;;9.61;48.03
63285;BME280;49409;55.708;37.522;2023-03-16T02:54:48;98939.56;;;9.64;47.61
63285;BME280;49409;55.708;37.522;2023-03-16T02:57:13;98933.22;;;9.67;47.64
63285;BME280;49409;55.708;37.522;2023-03-16T02:59:38;98931.59;;;9.69;48.17
63285;BME280;49409;55.708;37.522;2023-03-16T03:02:04;98940.19;;;9.71;47.89
63285;BME280;49409;55.708;37.522;2023-03-16T03:04:29;98947.94;;;9.77;47.44
63285;BME280;49409;55.708;37.522;2023-03-16T03:06:57;98945.56;;;9.79;47.70
63285;BME280;49409;55.708;37.522;2023-03-16T03:09:28;98951.41;;;9.81;47.39
63285;BME280;49409;55.708;37.522;2023-03-16T03:11:53;98936.13;;;9.80;47.25
63285;BME280;49409;55.708;37.522;2023-03-16T03:14:18;98935.28;;;9.83;47.49
63285;BME280;49409;55.708;37.522;2023-03-16T03:16:44;98944.66;;;9.85;47.67
63285;BME280;49409;55.708;37.522;2023-03-16T03:19:10;98932.03;;;9.88;47.38
63285;BME280;49409;55.708;37.522;2023-03-16T03:21:36;98932.03;;;9.88;47.71
63285;BME280;49409;55.708;37.522;2023-03-16T03:24:01;98928.88;;;9.89;47.41
63285;BME280;49409;55.708;37.522;2023-03-16T03:26:26;98930.84;;;9.89;47.49
63285;BME280;49409;55.708;37.522;2023-03-16T03:28:52;98928.19;;;9.85;47.14
63285;BME280;49409;55.708;37.522;2023-03-16T03:31:18;98932.53;;;9.83;47.29
63285;BME280;49409;55.708;37.522;2023-03-16T03:33:44;98924.69;;;9.81;47.25
63285;BME280;49409;55.708;37.522;2023-03-16T03:36:09;98913.28;;;9.83;47.25
63285;BME280;49409;55.708;37.522;2023-03-16T03:38:35;98911.75;;;9.82;47.64
63285;BME280;49409;55.708;37.522;2023-03-16T03:41:01;98919.66;;;9.80;47.85
63285;BME280;49409;55.708;37.522;2023-03-16T03:43:26;98915.84;;;9.73;47.49
63285;BME280;49409;55.708;37.522;2023-03-16T03:45:58;98919.41;;;9.70;47.83
63285;BME280;49409;55.708;37.522;2023-03-16T03:48:24;98922.16;;;9.70;47.67
63285;BME280;49409;55.708;37.522;2023-03-16T03:50:50;98932.34;;;9.73;47.93
63285;BME280;49409;55.708;37.522;2023-03-16T03:53:16;98930.34;;;9.74;47.77
63285;BME280;49409;55.708;37.522;2023-03-16T03:55:41;98923.72;;;9.71;48.06
63285;BME280;49409;55.708;37.522;2023-03-16T03:58:07;98929.28;;;9.68;48.08
63285;BME280;49409;55.708;37.522;2023-03-16T04:00:32;98935.63;;;9.65;48.10
63285;BME280;49409;55.708;37.522;2023-03-16T04:02:57;98941.09;;;9.65;48.09
63285;BME280;49409;55.708;37.522;2023-03-16T04:05:23;98939.56;;;9.64;47.88
63285;BME280;49409;55.708;37.522;2023-03-16T04:07:51;98932.56;;;9.59;48.23
63285;BME280;49409;55.708;37.522;2023-03-16T04:10:21;98941.66;;;9.56;48.18
63285;BME280;49409;55.708;37.522;2023-03-16T04:12:46;98933.50;;;9.52;48.08
63285;BME280;49409;55.708;37.522;2023-03-16T04:15:11;98925.66;;;9.51;48.66
63285;BME280;49409;55.708;37.522;2023-03-16T04:17:36;98928.06;;;9.49;48.48
63285;BME280;49409;55.708;37.522;2023-03-16T04:20:02;98928.06;;;9.49;48.15
63285;BME280;49409;55.708;37.522;2023-03-16T04:22:30;98927.34;;;9.45;48.77
63285;BME280;49409;55.708;37.522;2023-03-16T04:24:56;98924.31;;;9.39;48.58
63285;BME280;49409;55.708;37.522;2023-03-16T04:27:21;98922.84;;;9.35;48.41
63285;BME280;49409;55.708;37.522;2023-03-16T04:29:46;98922.88;;;9.31;48.75
63285;BME280;49409;55.708;37.522;2023-03-16T04:32:12;98937.03;;;9.29;48.84
63285;BME280;49409;55.708;37.522;2023-03-16T04:34:37;98931.13;;;9.31;48.57
63285;BME280;49409;55.708;37.522;2023-03-16T04:37:05;98931.53;;;9.29;48.88
63285;BME280;49409;55.708;37.522;2023-03-16T04:39:31;98933.94;;;9.27;48.90
63285;BME280;49409;55.708;37.522;2023-03-16T04:41:56;98928.78;;;9.29;48.48
63285;BME280;49409;55.708;37.522;2023-03-16T04:44:21;98924.16;;;9.26;48.63
63285;BME280;49409;55.708;37.522;2023-03-16T04:46:47;98942.53;;;9.29;48.47
63285;BME280;49409;55.708;37.522;2023-03-16T04:49:12;98954.16;;;9.37;48.43
63285;BME280;49409;55.708;37.522;2023-03-16T04:51:37;98953.38;;;9.37;49.13
63285;BME280;49409;55.708;37.522;2023-03-16T04:54:04;98957.25;;;9.39;48.79
63285;BME280;49409;55.708;37.522;2023-03-16T04:56:30;98954.16;;;9.37;48.54
63285;BME280;49409;55.708;37.522;2023-03-16T04:58:55;98955.72;;;9.38;48.82
63285;BME280;49409;55.708;37.522;2023-03-16T05:01:24;98966.81;;;9.31;48.63
63285;BME280;49409;55.708;37.522;2023-03-16T05:03:49;98971.59;;;9.27;48.85
63285;BME280;49409;55.708;37.522;2023-03-16T05:06:14;98963.78;;;9.25;49.01
63285;BME280;49409;55.708;37.522;2023-03-16T05:08:40;98968.91;;;9.23;48.83
63285;BME280;49409;55.708;37.522;2023-03-16T05:11:05;98974.50;;;9.16;49.37
63285;BME280;49409;55.708;37.522;2023-03-16T05:13:31;98980.00;;;9.16;49.21
63285;BME280;49409;55.708;37.522;2023-03-16T05:15:56;98970.22;;;9.15;49.67
63285;BME280;49409;55.708;37.522;2023-03-16T05:18:21;98975.72;;;9.15;49.24
63285;BME280;49409;55.708;37.522;2023-03-16T05:20:50;98975.72;;;9.15;49.13
63285;BME280;49409;55.708;37.522;2023-03-16T05:23:16;98960.06;;;9.12;49.26
63285;BME280;49409;55.708;37.522;2023-03-16T05:25:41;98981.19;;;9.15;49.32
63285;BME280;49409;55.708;37.522;2023-03-16T05:28:07;98969.38;;;9.18;49.27
63285;BME280;49409;55.708;37.522;2023-03-16T05:30:32;98966.63;;;9.18;49.43
63285;BME280;49409;55.708;37.522;2023-03-16T05:32:58;98970.09;;;9.22;49.23
63285;BME280;49409;55.708;37.522;2023-03-16T05:35:23;98964.78;;;9.11;49.87
63285;BME280;49409;55.708;37.522;2023-03-16T05:37:48;98960.06;;;9.12;49.72
63285;BME280;49409;55.708;37.522;2023-03-16T05:40:14;98955.78;;;9.11;49.38
63285;BME280;49409;55.708;37.522;2023-03-16T05:42:43;98961.56;;;9.17;49.54
63285;BME280;49409;55.708;37.522;2023-03-16T05:45:09;98977.84;;;9.27;49.21
63285;BME280;49409;55.708;37.522;2023-03-16T05:47:34;98970.69;;;9.33;48.89
63285;BME280;49409;55.708;37.522;2023-03-16T05:50:01;98972.25;;;9.35;49.48
63285;BME280;49409;55.708;37.522;2023-03-16T05:52:27;98972.97;;;9.39;49.01
63285;BME280;49409;55.708;37.522;2023-03-16T05:54:52;98980.72;;;9.44;49.04
63285;BME280;49409;55.708;37.522;2023-03-16T05:57:18;98974.03;;;9.45;48.92
63285;BME280;49409;55.708;37.522;2023-03-16T05:59:43;98980.25;;;9.49;49.25
63285;BME280;49409;55.708;37.522;2023-03-16T06:02:08;98970.69;;;9.57;49.17
63285;BME280;49409;55.708;37.522;2023-03-16T06:04:34;98971.81;;;9.60;48.75
63285;BME280;49409;55.708;37.522;2023-03-16T06:07:00;98973.38;;;9.61;49.03
63285;BME280;49409;55.708;37.522;2023-03-16T06:09:26;98976.47;;;9.63;48.93
63285;BME280;49409;55.708;37.522;2023-03-16T06:11:51;98974.94;;;9.62;49.01
63285;BME280;49409;55.708;37.522;2023-03-16T06:14:17;98981.19;;;9.62;48.62
63285;BME280;49409;55.708;37.522;2023-03-16T06:16:42;98988.72;;;9.58;49.15
63285;BME280;49409;55.708;37.522;2023-03-16T06:19:08;98993.16;;;9.52;49.33
63285;BME280;49409;55.708;37.522;2023-03-16T06:21:33;98993.16;;;9.52;48.83
63285;BME280;49409;55.708;37.522;2023-03-16T06:23:58;99004.13;;;9.52;48.76
63285;BME280;49409;55.708;37.522;2023-03-16T06:26:24;99004.13;;;9.52;49.09
63285;BME280;49409;55.708;37.522;2023-03-16T06:28:49;99011.56;;;9.51;49.27
63285;BME280;49409;55.708;37.522;2023-03-16T06:31:15;99014.75;;;9.50;48.89
63285;BME280;49409;55.708;37.522;2023-03-16T06:33:40;99008.78;;;9.55;48.86
63285;BME280;49409;55.708;37.522;2023-03-16T06:36:05;99007.59;;;9.56;48.97
63285;BME280;49409;55.708;37.522;2023-03-16T06:38:31;99003.28;;;9.55;49.39
63285;BME280;49409;55.708;37.522;2023-03-16T06:40:57;99004.34;;;9.61;48.98
63285;BME280;49409;55.708;37.522;2023-03-16T06:43:22;98996.81;;;9.65;49.08
63285;BME280;49409;55.708;37.522;2023-03-16T06:45:48;99002.19;;;9.72;48.98
63285;BME280;49409;55.708;37.522;2023-03-16T06:48:13;98996.22;;;9.78;48.82
63285;BME280;49409;55.708;37.522;2023-03-16T06:50:38;98999.69;;;9.82;49.07
63285;BME280;49409;55.708;37.522;2023-03-16T06:53:04;98999.53;;;9.89;48.82
63285;BME280;49409;55.708;37.522;2023-03-16T06:55:38;99000.25;;;9.93;48.98
63285;BME280;49409;55.708;37.522;2023-03-16T07:01:08;99000.13;;;10.00;48.63
63285;BME280;49409;55.708;37.522;2023-03-16T07:03:54;99007.94;;;10.02;48.50
63285;BME280;49409;55.708;37.522;2023-03-16T07:06:19;98999.69;;;10.02;48.58
63285;BME280;49409;55.708;37.522;2023-03-16T07:08:45;98990.53;;;10.08;48.60
63285;BME280;49409;55.708;37.522;2023-03-16T07:11:10;98994.34;;;10.15;48.51
63285;BME280;49409;55.708;37.522;2023-03-16T07:13:35;98998.13;;;10.21;48.39
63285;BME280;49409;55.708;37.522;2023-03-16T07:16:01;99005.47;;;10.27;48.73
63285;BME280;49409;55.708;37.522;2023-03-16T07:18:26;99012.47;;;10.32;48.32
63285;BME280;49409;55.708;37.522;2023-03-16T07:20:55;99021.50;;;10.32;48.35
63285;BME280;49409;55.708;37.522;2023-03-16T07:23:20;99008.59;;;10.29;48.73
63285;BME280;49409;55.708;37.522;2023-03-16T07:25:45;99017.97;;;10.32;48.51
63285;BME280;49409;55.708;37.522;2023-03-16T07:28:11;99005.78;;;10.33;48.52
63285;BME280;49409;55.708;37.522;2023-03-16T07:30:36;99006.56;;;10.34;48.76
63285;BME280;49409;55.708;37.522;2023-03-16T07:33:02;98998.25;;;10.37;48.52
63285;BME280;49409;55.708;37.522;2023-03-16T07:35:27;99000.84;;;10.44;48.74
63285;BME280;49409;55.708;37.522;2023-03-16T07:37:53;98994.41;;;10.51;48.33
63285;BME280;49409;55.708;37.522;2023-03-16T07:40:19;98991.06;;;10.60;48.18
63285;BME280;49409;55.708;37.522;2023-03-16T07:42:44;98995.66;;;10.66;48.15
63285;BME280;49409;55.708;37.522;2023-03-16T07:45:10;98986.81;;;10.75;47.94
63285;BME280;49409;55.708;37.522;2023-03-16T07:47:36;98987.84;;;10.81;48.26
63285;BME280;49409;55.708;37.522;2023-03-16T07:50:03;98986.66;;;10.82;48.25
63285;BME280;49409;55.708;37.522;2023-03-16T07:52:28;98989.41;;;10.82;48.00
63285;BME280;49409;55.708;37.522;2023-03-16T07:54:54;98983.03;;;10.85;47.95
63285;BME280;49409;55.708;37.522;2023-03-16T07:57:19;98982.19;;;10.88;48.45
63285;BME280;49409;55.708;37.522;2023-03-16T07:59:45;98984.09;;;10.91;48.10
63285;BME280;49409;55.708;37.522;2023-03-16T08:02:12;98980.47;;;10.95;48.04
63285;BME280;49409;55.708;37.522;2023-03-16T08:04:37;98976.00;;;11.01;48.31
63285;BME280;49409;55.708;37.522;2023-03-16T08:07:06;98986.88;;;11.08;48.23
63285;BME280;49409;55.708;37.522;2023-03-16T08:09:31;98986.75;;;11.11;48.20
63285;BME280;49409;55.708;37.522;2023-03-16T08:12:00;98979.63;;;11.14;47.76
63285;BME280;49409;55.708;37.522;2023-03-16T08:14:25;98990.56;;;11.18;47.70
63285;BME280;49409;55.708;37.522;2023-03-16T08:16:51;98985.84;;;11.18;47.97
63285;BME280;49409;55.708;37.522;2023-03-16T08:19:16;98991.34;;;11.18;47.71
63285;BME280;49409;55.708;37.522;2023-03-16T08:21:42;99005.09;;;11.18;48.02
63285;BME280;49409;55.708;37.522;2023-03-16T08:24:07;98991.41;;;11.15;48.09
63285;BME280;49409;55.708;37.522;2023-03-16T08:26:33;98991.50;;;11.11;48.01
63285;BME280;49409;55.708;37.522;2023-03-16T08:28:58;99000.97;;;11.10;48.09
63285;BME280;49409;55.708;37.522;2023-03-16T08:31:27;98995.47;;;11.10;48.27
63285;BME280;49409;55.708;37.522;2023-03-16T08:33:53;98995.47;;;11.10;48.12
63285;BME280;49409;55.708;37.522;2023-03-16T08:36:18;98998.56;;;11.12;48.40
63285;BME280;49409;55.708;37.522;2023-03-16T08:38:45;99000.09;;;11.13;48.16
63285;BME280;49409;55.708;37.522;2023-03-16T08:41:11;98993.75;;;11.16;48.07
63285;BME280;49409;55.708;37.522;2023-03-16T08:43:36;98990.13;;;11.19;48.40
63285;BME280;49409;55.708;37.522;2023-03-16T08:46:02;98994.44;;;11.20;48.19
63285;BME280;49409;55.708;37.522;2023-03-16T08:48:29;98995.97;;;11.21;47.78
63285;BME280;49409;55.708;37.522;2023-03-16T08:50:55;98996.84;;;11.18;47.72
63285;BME280;49409;55.708;37.522;2023-03-16T08:53:20;99004.75;;;11.16;47.76
63285;BME280;49409;55.708;37.522;2023-03-16T08:55:46;99000.09;;;11.13;47.96
63285;BME280;49409;55.708;37.522;2023-03-16T08:58:11;99003.38;;;11.08;48.48
63285;BME280;49409;55.708;37.522;2023-03-16T09:00:38;99008.91;;;11.08;48.05
63285;BME280;49409;55.708;37.522;2023-03-16T09:03:04;99005.34;;;11.07;48.25
63285;BME280;49409;55.708;37.522;2023-03-16T09:05:30;99006.91;;;11.08;48.17
63285;BME280;49409;55.708;37.522;2023-03-16T09:07:55;99004.06;;;11.12;48.48
63285;BME280;49409;55.708;37.522;2023-03-16T09:10:21;99003.97;;;11.16;48.48
63285;BME280;49409;55.708;37.522;2023-03-16T09:12:50;98999.25;;;11.16;47.94
63285;BME280;49409;55.708;37.522;2023-03-16T09:15:16;99000.44;;;11.15;48.46
63285;BME280;49409;55.708;37.522;2023-03-16T09:17:43;98999.25;;;11.16;48.27
63285;BME280;49409;55.708;37.522;2023-03-16T09:20:10;99005.53;;;11.17;48.44
63285;BME280;49409;55.708;37.522;2023-03-16T09:22:36;99003.97;;;11.16;48.38
63285;BME280;49409;55.708;37.522;2023-03-16T09:25:04;98996.50;;;11.16;48.35
63285;BME280;49409;55.708;37.522;2023-03-16T09:27:31;99002.44;;;11.15;48.48
63285;BME280;49409;55.708;37.522;2023-03-16T09:29:57;99002.84;;;11.13;48.46
63285;BME280;49409;55.708;37.522;2023-03-16T09:32:23;99001.31;;;11.12;48.63
63285;BME280;49409;55.708;37.522;2023-03-16T09:34:48;99003.28;;;11.11;48.40
63285;BME280;49409;55.708;37.522;2023-03-16T09:37:14;99003.38;;;11.08;48.66
63285;BME280;49409;55.708;37.522;2023-03-16T09:39:40;98997.97;;;11.04;48.76
63285;BME280;49409;55.708;37.522;2023-03-16T09:42:13;99005.06;;;11.02;48.52
63285;BME280;49409;55.708;37.522;2023-03-16T09:47:09;99000.28;;;11.06;48.55
63285;BME280;49409;55.708;37.522;2023-03-16T09:49:36;98995.47;;;11.10;48.37
63285;BME280;49409;55.708;37.522;2023-03-16T09:54:52;98985.84;;;11.18;48.34
63285;BME280;49409;55.708;37.522;2023-03-16T09:57:40;98988.94;;;11.20;48.54
63285;BME280;49409;55.708;37.522;2023-03-16T10:00:18;98993.22;;;11.21;48.09
63285;BME280;49409;55.708;37.522;2023-03-16T10:02:47;99002.69;;;11.20;48.60
63285;BME280;49409;55.708;37.522;2023-03-16T10:05:21;99003.28;;;11.11;48.77
63285;BME280;49409;55.708;37.522;2023-03-16T10:15:55;99014.22;;;11.15;49.01
63285;BME280;49409;55.708;37.522;2023-03-16T10:18:25;99009.47;;;11.16;48.74
63285;BME280;49409;55.708;37.522;2023-03-16T10:20:53;99002.69;;;11.20;48.54
63285;BME280;49409;55.708;37.522;2023-03-16T10:23:20;98999.94;;;11.20;48.67
63285;BME280;49409;55.708;37.522;2023-03-16T10:25:50;98997.53;;;11.22;48.74
63285;BME280;49409;55.708;37.522;2023-03-16T10:28:17;98999.19;;;11.20;48.86
63285;BME280;49409;55.708;37.522;2023-03-16T10:30:43;98996.78;;;11.22;48.89
63285;BME280;49409;55.708;37.522;2023-03-16T10:33:30;99000.63;;;11.24;49.08
63285;BME280;49409;55.708;37.522;2023-03-16T10:43:44;99009.06;;;11.34;48.54
63285;BME280;49409;55.708;37.522;2023-03-16T10:46:27;99006.66;;;11.36;48.66
63285;BME280;49409;55.708;37.522;2023-03-16T10:48:53;99010.94;;;11.37;49.05
63285;BME280;49409;55.708;37.522;2023-03-16T10:51:23;99013.03;;;11.32;48.72
63285;BME280;49409;55.708;37.522;2023-03-16T10:53:50;99013.09;;;11.29;48.87
63285;BME280;49409;55.708;37.522;2023-03-16T10:56:22;99012.34;;;11.28;48.88
63285;BME280;49409;55.708;37.522;2023-03-16T10:58:49;99006.91;;;11.25;48.96
63285;BME280;49409;55.708;37.522;2023-03-16T11:01:19;99008.91;;;11.24;48.97
63285;BME280;49409;55.708;37.522;2023-03-16T11:03:49;99005.63;;;11.29;48.76
63285;BME280;49409;55.708;37.522;2023-03-16T11:06:31;99009.06;;;11.34;48.59
63285;BME280;49409;55.708;37.522;2023-03-16T11:09:03;99017.56;;;11.39;48.68
63285;BME280;49409;55.708;37.522;2023-03-16T11:11:32;99008.19;;;11.37;48.68
63285;BME280;49409;55.708;37.522;2023-03-16T11:14:02;99012.50;;;11.38;48.79
63285;BME280;49409;55.708;37.522;2023-03-16T11:19:23;99020.44;;;11.36;48.87
63285;BME280;49409;55.708;37.522;2023-03-16T11:24:24;99011.50;;;11.31;48.62
63285;BME280;49409;55.708;37.522;2023-03-16T11:26:53;99015.00;;;11.32;48.83
63285;BME280;49409;55.708;37.522;2023-03-16T11:31:46;99017.34;;;11.34;48.61
63285;BME280;49409;55.708;37.522;2023-03-16T11:34:16;99024.91;;;11.29;48.83
63285;BME280;49409;55.708;37.522;2023-03-16T11:36:45;99017.84;;;11.28;48.65
63285;BME280;49409;55.708;37.522;2023-03-16T11:39:19;99028.09;;;11.28;48.38
63285;BME280;49409;55.708;37.522;2023-03-16T11:47:02;99034.53;;;11.21;48.99
63285;BME280;49409;55.708;37.522;2023-03-16T11:49:42;99031.44;;;11.19;49.04
63285;BME280;49409;55.708;37.522;2023-03-16T11:52:28;99042.91;;;11.18;49.19
63285;BME280;49409;55.708;37.522;2023-03-16T11:55:00;99037.00;;;11.16;48.98
63285;BME280;49409;55.708;37.522;2023-03-16T11:57:32;99044.16;;;11.13;48.78
63285;BME280;49409;55.708;37.522;2023-03-16T12:05:23;99052.06;;;11.11;49.18
63285;BME280;49409;55.708;37.522;2023-03-16T12:07:56;99052.84;;;11.11;48.87
63285;BME280;49409;55.708;37.522;2023-03-16T12:13:18;99050.53;;;11.10;49.25
63285;BME280;49409;55.708;37.522;2023-03-16T12:15:51;99056.03;;;11.10;48.92
63285;BME280;49409;55.708;37.522;2023-03-16T12:23:19;99050.69;;;11.03;49.22
63285;BME280;49409;55.708;37.522;2023-03-16T12:25:47;99047.59;;;11.01;49.10
63285;BME280;49409;55.708;37.522;2023-03-16T12:28:20;99048.09;;;10.96;48.93
63285;BME280;49409;55.708;37.522;2023-03-16T12:48:58;99063.72;;;10.82;49.26
63285;BME280;49409;55.708;37.522;2023-03-16T12:51:38;99066.13;;;10.80;49.67
63285;BME280;49409;55.708;37.522;2023-03-16T12:54:05;99084.25;;;10.78;49.25
63285;BME280;49409;55.708;37.522;2023-03-16T12:56:45;99070.91;;;10.76;49.66
63285;BME280;49409;55.708;37.522;2023-03-16T12:59:15;99085.88;;;10.75;49.59
63285;BME280;49409;55.708;37.522;2023-03-16T13:01:42;99085.97;;;10.71;49.49
63285;BME280;49409;55.708;37.522;2023-03-16T13:04:12;99079.69;;;10.71;49.67
63285;BME280;49409;55.708;37.522;2023-03-16T13:06:41;99081.31;;;10.68;49.54
63285;BME280;49409;55.708;37.522;2023-03-16T13:09:08;99079.81;;;10.64;50.02
63285;BME280;49409;55.708;37.522;2023-03-16T13:11:42;99078.69;;;10.61;50.00
63285;BME280;49409;55.708;37.522;2023-03-16T13:14:12;99085.38;;;10.60;49.83
63285;BME280;49409;55.708;37.522;2023-03-16T13:16:40;99083.16;;;10.55;50.29
63285;BME280;49409;55.708;37.522;2023-03-16T13:19:16;99085.19;;;10.51;50.33
63285;BME280;49409;55.708;37.522;2023-03-16T13:21:41;99073.91;;;10.45;50.34
63285;BME280;49409;55.708;37.522;2023-03-16T13:26:45;99077.94;;;10.41;50.45
63285;BME280;49409;55.708;37.522;2023-03-16T13:31:46;99078.78;;;10.38;50.36
63285;BME280;49409;55.708;37.522;2023-03-16T13:34:18;99079.97;;;10.37;50.41
63285;BME280;49409;55.708;37.522;2023-03-16T13:39:53;99078.06;;;10.34;50.35
63285;BME280;49409;55.708;37.522;2023-03-16T13:42:20;99073.41;;;10.30;50.36
63285;BME280;49409;55.708;37.522;2023-03-16T13:44:46;99064.00;;;10.28;50.21
63285;BME280;49409;55.708;37.522;2023-03-16T13:47:12;99065.56;;;10.29;50.72
63285;BME280;49409;55.708;37.522;2023-03-16T13:49:48;99073.00;;;10.28;50.50
63285;BME280;49409;55.708;37.522;2023-03-16T13:52:24;99074.97;;;10.31;50.34
63285;BME280;49409;55.708;37.522;2023-03-16T13:54:50;99068.69;;;10.31;50.55
63285;BME280;49409;55.708;37.522;2023-03-16T13:57:17;99069.88;;;10.30;50.56
63285;BME280;49409;55.708;37.522;2023-03-16T13:59:44;99073.09;;;10.25;50.74
63285;BME280;49409;55.708;37.522;2023-03-16T14:02:15;99072.72;;;10.23;50.52
63285;BME280;49409;55.708;37.522;2023-03-16T14:04:41;99071.53;;;10.24;50.97
63285;BME280;49409;55.708;37.522;2023-03-16T14:07:12;99071.13;;;10.25;50.68
63285;BME280;49409;55.708;37.522;2023-03-16T14:09:40;99078.59;;;10.25;51.02
63285;BME280;49409;55.708;37.522;2023-03-16T14:12:05;99077.41;;;10.26;50.83
63285;BME280;49409;55.708;37.522;2023-03-16T14:14:36;99071.53;;;10.24;50.59
63285;BME280;49409;55.708;37.522;2023-03-16T14:17:13;99074.28;;;10.24;50.82